This is the latest recevied weather packets stored in our database for station/object W8AN. If no packets are shown the sender has not sent any weather packets the latest 10 day(s).
| Time | Temp. | Humidity | Pressure | Rain* | Wind** | Luminosity | Snow |
|---|---|---|---|---|---|---|---|
| 1777331886 | 17.22° C | 82% | 4266.5 hPa | 0 mm | - | 12 W/m² | - |
| 1777331583 | 17.22° C | 82% | 4267.6 hPa | 1.78 mm | - | 16 W/m² | - |
| 1777331280 | 17.22° C | 82% | 4268.6 hPa | 1.78 mm | - | 24 W/m² | - |
| 1777330978 | 17.78° C | 81% | 4268.9 hPa | 1.78 mm | - | 23 W/m² | - |
| 1777330674 | 17.78° C | 81% | 4269.3 hPa | 1.27 mm | - | 19 W/m² | - |
| 1777330372 | 17.78° C | 81% | 4269.4 hPa | 1.27 mm | - | 16 W/m² | - |
| 1777330069 | 17.78° C | 79% | 4269.4 hPa | 3.05 mm | - | 16 W/m² | - |
| 1777329768 | 18.33° C | 79% | 4269.5 hPa | 3.05 mm | - | 16 W/m² | - |
| 1777329466 | 18.33° C | 79% | 4269.4 hPa | 1.27 mm | - | 10 W/m² | - |
| 1777329163 | 18.33° C | 79% | 4269.5 hPa | 1.78 mm | - | 14 W/m² | - |
| 1777328861 | 18.89° C | 79% | 4269.2 hPa | 3.05 mm | - | 17 W/m² | - |
| 1777328558 | 18.89° C | 77% | 4269.5 hPa | 1.27 mm | - | 16 W/m² | - |
| 1777328257 | 18.89° C | 76% | 4269.3 hPa | 1.78 mm | - | 16 W/m² | - |
| 1777327955 | 18.33° C | 79% | 4269.2 hPa | 3.05 mm | - | 16 W/m² | - |
| 1777327653 | 18.89° C | 78% | 4268.8 hPa | 1.27 mm | - | 12 W/m² | - |
| 1777327349 | 19.44° C | 77% | 4268.8 hPa | 1.78 mm | - | 17 W/m² | - |
| 1777327046 | 20° C | 74% | 4268.8 hPa | 0 mm | - | 16 W/m² | - |
| 1777326743 | 20.56° C | 70% | 4268.8 hPa | 0 mm | - | 23 W/m² | - |
| 1777326440 | 21.11° C | 67% | 4268.7 hPa | 0 mm | - | 20 W/m² | - |
| 1777326138 | 21.67° C | 62% | 4268.6 hPa | 0 mm | - | 29 W/m² | - |
| 1777325836 | 21.67° C | 62% | 4268.7 hPa | 0 mm | - | 37 W/m² | - |
| 1777325534 | 21.67° C | 60% | 4268.5 hPa | 0 mm | - | 45 W/m² | - |
| 1777325232 | 22.22° C | 59% | 4268.5 hPa | 0 mm | - | 53 W/m² | - |
| 1777324928 | 22.22° C | 58% | 4268.1 hPa | 0 mm | - | 62 W/m² | - |
| 1777324625 | 22.22° C | 58% | 4268.2 hPa | 0 mm | - | 62 W/m² | - |
* Rain latest hour (hover to see other rain measurements)
** Current wind speed in m/s (hover to see current wind gust speed)